sensor_id;sensor_type;location;lat;lon;timestamp;pressure;altitude;pressure_sealevel;temperature;humidity
42431;BME280;71905;47.466;19.024;2024-01-30T00:00:19;102633.53;;;-0.78;100.00
42431;BME280;71905;47.466;19.024;2024-01-30T00:02:47;102633.81;;;-0.90;100.00
42431;BME280;71905;47.466;19.024;2024-01-30T00:05:17;102636.56;;;-0.86;100.00
42431;BME280;71905;47.466;19.024;2024-01-30T00:07:45;102642.41;;;-0.91;100.00
42431;BME280;71905;47.466;19.024;2024-01-30T00:10:13;102638.53;;;-0.99;100.00
42431;BME280;71905;47.466;19.024;2024-01-30T00:12:41;102643.56;;;-1.02;100.00
42431;BME280;71905;47.466;19.024;2024-01-30T00:15:10;102634.81;;;-1.04;100.00
42431;BME280;71905;47.466;19.024;2024-01-30T00:17:38;102635.63;;;-1.05;100.00
42431;BME280;71905;47.466;19.024;2024-01-30T00:20:06;102634.50;;;-1.10;100.00
42431;BME280;71905;47.466;19.024;2024-01-30T00:22:37;102637.19;;;-1.08;100.00
42431;BME280;71905;47.466;19.024;2024-01-30T00:25:05;102635.19;;;-1.14;100.00
42431;BME280;71905;47.466;19.024;2024-01-30T00:27:34;102645.06;;;-1.23;100.00
42431;BME280;71905;47.466;19.024;2024-01-30T00:30:04;102638.91;;;-1.25;100.00
42431;BME280;71905;47.466;19.024;2024-01-30T00:32:33;102646.69;;;-1.25;100.00
42431;BME280;71905;47.466;19.024;2024-01-30T00:35:01;102644.72;;;-1.29;100.00
42431;BME280;71905;47.466;19.024;2024-01-30T00:37:29;102652.56;;;-1.28;100.00
42431;BME280;71905;47.466;19.024;2024-01-30T00:39:59;102656.16;;;-1.26;100.00
42431;BME280;71905;47.466;19.024;2024-01-30T00:42:27;102652.03;;;-1.22;100.00
42431;BME280;71905;47.466;19.024;2024-01-30T00:44:55;102653.00;;;-1.20;100.00
42431;BME280;71905;47.466;19.024;2024-01-30T00:47:23;102648.78;;;-1.18;100.00
42431;BME280;71905;47.466;19.024;2024-01-30T00:49:51;102653.88;;;-1.20;100.00
42431;BME280;71905;47.466;19.024;2024-01-30T00:52:19;102657.22;;;-1.22;100.00
42431;BME280;71905;47.466;19.024;2024-01-30T00:54:47;102647.47;;;-1.10;100.00
42431;BME280;71905;47.466;19.024;2024-01-30T00:57:17;102648.44;;;-1.08;100.00
42431;BME280;71905;47.466;19.024;2024-01-30T00:59:45;102646.97;;;-1.03;100.00
42431;BME280;71905;47.466;19.024;2024-01-30T01:02:13;102645.38;;;-1.01;100.00
42431;BME280;71905;47.466;19.024;2024-01-30T01:04:44;102647.84;;;-1.02;100.00
42431;BME280;71905;47.466;19.024;2024-01-30T01:07:12;102644.81;;;-1.11;100.00
42431;BME280;71905;47.466;19.024;2024-01-30T01:09:40;102650.72;;;-1.14;100.00
42431;BME280;71905;47.466;19.024;2024-01-30T01:12:10;102637.28;;;-1.23;100.00
42431;BME280;71905;47.466;19.024;2024-01-30T01:14:39;102635.25;;;-1.29;100.00
42431;BME280;71905;47.466;19.024;2024-01-30T01:17:07;102635.16;;;-1.30;100.00
42431;BME280;71905;47.466;19.024;2024-01-30T01:19:35;102642.78;;;-1.33;100.00
42431;BME280;71905;47.466;19.024;2024-01-30T01:22:03;102640.28;;;-1.32;100.00
42431;BME280;71905;47.466;19.024;2024-01-30T01:24:31;102638.41;;;-1.34;100.00
42431;BME280;71905;47.466;19.024;2024-01-30T01:26:59;102629.34;;;-1.42;100.00
42431;BME280;71905;47.466;19.024;2024-01-30T01:29:28;102634.22;;;-1.49;100.00
42431;BME280;71905;47.466;19.024;2024-01-30T01:31:57;102635.66;;;-1.54;100.00
42431;BME280;71905;47.466;19.024;2024-01-30T01:34:25;102626.75;;;-1.59;100.00
42431;BME280;71905;47.466;19.024;2024-01-30T01:36:56;102621.16;;;-1.66;100.00
42431;BME280;71905;47.466;19.024;2024-01-30T01:39:24;102628.94;;;-1.66;100.00
42431;BME280;71905;47.466;19.024;2024-01-30T01:41:52;102625.44;;;-1.67;100.00
42431;BME280;71905;47.466;19.024;2024-01-30T01:44:20;102628.03;;;-1.67;100.00
42431;BME280;71905;47.466;19.024;2024-01-30T01:46:48;102626.34;;;-1.66;100.00
42431;BME280;71905;47.466;19.024;2024-01-30T01:49:18;102621.72;;;-1.72;100.00
42431;BME280;71905;47.466;19.024;2024-01-30T01:51:47;102621.22;;;-1.81;100.00
42431;BME280;71905;47.466;19.024;2024-01-30T01:54:16;102619.88;;;-1.74;100.00
42431;BME280;71905;47.466;19.024;2024-01-30T01:56:45;102624.91;;;-1.77;100.00
42431;BME280;71905;47.466;19.024;2024-01-30T01:59:13;102620.78;;;-1.74;100.00
42431;BME280;71905;47.466;19.024;2024-01-30T02:01:41;102615.75;;;-1.71;100.00
42431;BME280;71905;47.466;19.024;2024-01-30T02:04:16;102620.94;;;-1.71;100.00
42431;BME280;71905;47.466;19.024;2024-01-30T02:06:45;102622.63;;;-1.71;100.00
42431;BME280;71905;47.466;19.024;2024-01-30T02:09:14;102618.56;;;-1.66;100.00
42431;BME280;71905;47.466;19.024;2024-01-30T02:11:42;102620.03;;;-1.71;100.00
42431;BME280;71905;47.466;19.024;2024-01-30T02:14:10;102623.44;;;-1.72;100.00
42431;BME280;71905;47.466;19.024;2024-01-30T02:16:38;102620.03;;;-1.71;100.00
42431;BME280;71905;47.466;19.024;2024-01-30T02:19:06;102619.69;;;-1.94;100.00
42431;BME280;71905;47.466;19.024;2024-01-30T02:21:36;102618.78;;;-1.94;100.00
42431;BME280;71905;47.466;19.024;2024-01-30T02:24:04;102620.75;;;-1.90;100.00
42431;BME280;71905;47.466;19.024;2024-01-30T02:26:33;102620.91;;;-1.87;100.00
42431;BME280;71905;47.466;19.024;2024-01-30T02:29:01;102613.31;;;-1.84;100.00
42431;BME280;71905;47.466;19.024;2024-01-30T02:31:29;102611.84;;;-1.79;100.00
42431;BME280;71905;47.466;19.024;2024-01-30T02:33:57;102612.50;;;-1.83;100.00
42431;BME280;71905;47.466;19.024;2024-01-30T02:36:25;102615.81;;;-1.86;100.00
42431;BME280;71905;47.466;19.024;2024-01-30T02:38:54;102618.06;;;-1.92;100.00
42431;BME280;71905;47.466;19.024;2024-01-30T02:41:22;102614.56;;;-1.92;100.00
42431;BME280;71905;47.466;19.024;2024-01-30T02:43:50;102621.28;;;-1.96;100.00
42431;BME280;71905;47.466;19.024;2024-01-30T02:46:18;102616.84;;;-1.98;100.00
42431;BME280;71905;47.466;19.024;2024-01-30T02:48:46;102629.78;;;-1.98;100.00
42431;BME280;71905;47.466;19.024;2024-01-30T02:51:14;102625.75;;;-1.93;100.00
42431;BME280;71905;47.466;19.024;2024-01-30T02:53:42;102628.75;;;-2.02;100.00
42431;BME280;71905;47.466;19.024;2024-01-30T02:56:13;102628.63;;;-2.03;100.00
42431;BME280;71905;47.466;19.024;2024-01-30T02:58:41;102624.78;;;-1.95;100.00
42431;BME280;71905;47.466;19.024;2024-01-30T03:01:09;102619.34;;;-2.00;100.00
42431;BME280;71905;47.466;19.024;2024-01-30T03:03:37;102619.28;;;-2.01;100.00
42431;BME280;71905;47.466;19.024;2024-01-30T03:06:07;102620.38;;;-2.13;100.00
42431;BME280;71905;47.466;19.024;2024-01-30T03:08:35;102615.50;;;-2.23;100.00
42431;BME280;71905;47.466;19.024;2024-01-30T03:11:04;102618.41;;;-2.17;100.00
42431;BME280;71905;47.466;19.024;2024-01-30T03:13:33;102615.19;;;-2.13;100.00
42431;BME280;71905;47.466;19.024;2024-01-30T03:16:01;102618.75;;;-2.11;100.00
42431;BME280;71905;47.466;19.024;2024-01-30T03:18:30;102620.63;;;-2.08;100.00
42431;BME280;71905;47.466;19.024;2024-01-30T03:20:58;102616.50;;;-2.04;100.00
42431;BME280;71905;47.466;19.024;2024-01-30T03:23:26;102610.19;;;-2.10;100.00
42431;BME280;71905;47.466;19.024;2024-01-30T03:25:54;102622.81;;;-2.16;100.00
42431;BME280;71905;47.466;19.024;2024-01-30T03:28:24;102621.59;;;-2.06;100.00
42431;BME280;71905;47.466;19.024;2024-01-30T03:30:53;102623.28;;;-2.07;100.00
42431;BME280;71905;47.466;19.024;2024-01-30T03:33:21;102627.41;;;-2.10;100.00
42431;BME280;71905;47.466;19.024;2024-01-30T03:35:49;102626.63;;;-2.09;100.00
42431;BME280;71905;47.466;19.024;2024-01-30T03:38:17;102621.50;;;-2.08;100.00
42431;BME280;71905;47.466;19.024;2024-01-30T03:40:45;102619.19;;;-2.03;100.00
42431;BME280;71905;47.466;19.024;2024-01-30T03:43:13;102611.66;;;-1.98;100.00
42431;BME280;71905;47.466;19.024;2024-01-30T03:45:41;102608.03;;;-2.02;100.00
42431;BME280;71905;47.466;19.024;2024-01-30T03:48:11;102606.94;;;-2.05;100.00
42431;BME280;71905;47.466;19.024;2024-01-30T03:50:39;102605.44;;;-2.02;100.00
42431;BME280;71905;47.466;19.024;2024-01-30T03:53:07;102604.34;;;-2.22;100.00
42431;BME280;71905;47.466;19.024;2024-01-30T03:55:35;102606.41;;;-2.31;100.00
42431;BME280;71905;47.466;19.024;2024-01-30T03:58:03;102612.38;;;-2.32;100.00
42431;BME280;71905;47.466;19.024;2024-01-30T04:00:31;102611.97;;;-2.40;100.00
42431;BME280;71905;47.466;19.024;2024-01-30T04:02:59;102607.84;;;-2.36;100.00
42431;BME280;71905;47.466;19.024;2024-01-30T04:05:29;102606.47;;;-2.29;100.00
42431;BME280;71905;47.466;19.024;2024-01-30T04:07:57;102606.00;;;-2.39;100.00
42431;BME280;71905;47.466;19.024;2024-01-30T04:10:25;102602.59;;;-2.38;100.00
42431;BME280;71905;47.466;19.024;2024-01-30T04:12:53;102605.28;;;-2.36;100.00
42431;BME280;71905;47.466;19.024;2024-01-30T04:15:22;102603.00;;;-2.30;100.00
42431;BME280;71905;47.466;19.024;2024-01-30T04:17:50;102592.50;;;-2.33;100.00
42431;BME280;71905;47.466;19.024;2024-01-30T04:20:18;102594.53;;;-2.27;100.00
42431;BME280;71905;47.466;19.024;2024-01-30T04:22:48;102589.75;;;-2.36;100.00
42431;BME280;71905;47.466;19.024;2024-01-30T04:25:16;102595.81;;;-2.35;100.00
42431;BME280;71905;47.466;19.024;2024-01-30T04:27:44;102595.06;;;-2.33;100.00
42431;BME280;71905;47.466;19.024;2024-01-30T04:30:13;102593.13;;;-2.37;100.00
42431;BME280;71905;47.466;19.024;2024-01-30T04:32:41;102604.47;;;-2.35;100.00
42431;BME280;71905;47.466;19.024;2024-01-30T04:35:09;102600.34;;;-2.31;100.00
42431;BME280;71905;47.466;19.024;2024-01-30T04:37:38;102597.03;;;-2.29;100.00
42431;BME280;71905;47.466;19.024;2024-01-30T04:40:08;102607.56;;;-2.26;100.00
42431;BME280;71905;47.466;19.024;2024-01-30T04:42:36;102606.13;;;-2.21;100.00
42431;BME280;71905;47.466;19.024;2024-01-30T04:45:06;102605.31;;;-2.20;100.00
42431;BME280;71905;47.466;19.024;2024-01-30T04:47:34;102608.88;;;-2.18;100.00
42431;BME280;71905;47.466;19.024;2024-01-30T04:50:03;102607.81;;;-2.21;100.00
42431;BME280;71905;47.466;19.024;2024-01-30T04:52:32;102609.50;;;-2.22;100.00
42431;BME280;71905;47.466;19.024;2024-01-30T04:55:00;102604.19;;;-2.25;100.00
42431;BME280;71905;47.466;19.024;2024-01-30T04:57:29;102602.72;;;-2.20;100.00
42431;BME280;71905;47.466;19.024;2024-01-30T04:59:58;102603.81;;;-2.31;100.00
42431;BME280;71905;47.466;19.024;2024-01-30T05:02:27;102609.19;;;-2.28;100.00
42431;BME280;71905;47.466;19.024;2024-01-30T05:04:55;102617.25;;;-2.38;100.00
42431;BME280;71905;47.466;19.024;2024-01-30T05:07:24;102617.06;;;-2.41;100.00
42431;BME280;71905;47.466;19.024;2024-01-30T05:09:52;102614.81;;;-2.35;100.00
42431;BME280;71905;47.466;19.024;2024-01-30T05:12:25;102624.91;;;-2.40;100.00
42431;BME280;71905;47.466;19.024;2024-01-30T05:14:54;102625.16;;;-2.35;100.00
42431;BME280;71905;47.466;19.024;2024-01-30T05:17:22;102625.81;;;-2.39;100.00
42431;BME280;71905;47.466;19.024;2024-01-30T05:19:50;102628.63;;;-2.34;100.00
42431;BME280;71905;47.466;19.024;2024-01-30T05:22:19;102636.56;;;-2.31;100.00
42431;BME280;71905;47.466;19.024;2024-01-30T05:24:47;102644.34;;;-2.31;100.00
42431;BME280;71905;47.466;19.024;2024-01-30T05:27:15;102635.84;;;-2.29;100.00
42431;BME280;71905;47.466;19.024;2024-01-30T05:29:43;102636.66;;;-2.30;100.00
42431;BME280;71905;47.466;19.024;2024-01-30T05:32:13;102633.09;;;-2.32;100.00
42431;BME280;71905;47.466;19.024;2024-01-30T05:34:42;102636.50;;;-2.33;100.00
42431;BME280;71905;47.466;19.024;2024-01-30T05:37:10;102641.41;;;-2.38;100.00
42431;BME280;71905;47.466;19.024;2024-01-30T05:39:41;102647.47;;;-2.37;100.00
42431;BME280;71905;47.466;19.024;2024-01-30T05:42:09;102642.38;;;-2.35;100.00
42431;BME280;71905;47.466;19.024;2024-01-30T05:44:37;102645.34;;;-2.44;100.00
42431;BME280;71905;47.466;19.024;2024-01-30T05:47:05;102649.72;;;-2.43;100.00
42431;BME280;71905;47.466;19.024;2024-01-30T05:49:35;102643.22;;;-2.51;100.00
42431;BME280;71905;47.466;19.024;2024-01-30T05:52:04;102640.06;;;-2.46;100.00
42431;BME280;71905;47.466;19.024;2024-01-30T05:54:32;102640.81;;;-2.48;100.00
42431;BME280;71905;47.466;19.024;2024-01-30T05:57:00;102638.84;;;-2.52;100.00
42431;BME280;71905;47.466;19.024;2024-01-30T05:59:28;102647.75;;;-2.47;100.00
42431;BME280;71905;47.466;19.024;2024-01-30T06:01:56;102645.25;;;-2.46;100.00
42431;BME280;71905;47.466;19.024;2024-01-30T06:04:25;102636.69;;;-2.45;100.00
42431;BME280;71905;47.466;19.024;2024-01-30T06:06:54;102640.97;;;-2.45;100.00
42431;BME280;71905;47.466;19.024;2024-01-30T06:09:22;102642.03;;;-2.42;100.00
42431;BME280;71905;47.466;19.024;2024-01-30T06:11:50;102643.47;;;-2.47;100.00
42431;BME280;71905;47.466;19.024;2024-01-30T06:14:18;102652.56;;;-2.39;100.00
42431;BME280;71905;47.466;19.024;2024-01-30T06:16:46;102645.63;;;-2.40;100.00
42431;BME280;71905;47.466;19.024;2024-01-30T06:19:14;102641.78;;;-2.46;100.00
42431;BME280;71905;47.466;19.024;2024-01-30T06:21:42;102649.38;;;-2.49;100.00
42431;BME280;71905;47.466;19.024;2024-01-30T06:24:12;102649.53;;;-2.46;100.00
42431;BME280;71905;47.466;19.024;2024-01-30T06:26:40;102646.50;;;-2.39;100.00
42431;BME280;71905;47.466;19.024;2024-01-30T06:29:08;102638.28;;;-2.32;100.00
42431;BME280;71905;47.466;19.024;2024-01-30T06:31:40;102648.97;;;-2.26;100.00
42431;BME280;71905;47.466;19.024;2024-01-30T06:34:08;102648.78;;;-2.29;100.00
42431;BME280;71905;47.466;19.024;2024-01-30T06:36:36;102653.97;;;-2.29;100.00
42431;BME280;71905;47.466;19.024;2024-01-30T06:39:05;102658.09;;;-2.32;100.00
42431;BME280;71905;47.466;19.024;2024-01-30T06:41:35;102651.28;;;-2.30;100.00
42431;BME280;71905;47.466;19.024;2024-01-30T06:44:03;102656.13;;;-2.37;100.00
42431;BME280;71905;47.466;19.024;2024-01-30T06:46:33;102655.97;;;-2.40;100.00
42431;BME280;71905;47.466;19.024;2024-01-30T06:49:01;102664.44;;;-2.42;100.00
42431;BME280;71905;47.466;19.024;2024-01-30T06:51:29;102659.16;;;-2.44;100.00
42431;BME280;71905;47.466;19.024;2024-01-30T06:53:57;102655.09;;;-2.40;100.00
42431;BME280;71905;47.466;19.024;2024-01-30T06:56:25;102651.03;;;-2.35;100.00
42431;BME280;71905;47.466;19.024;2024-01-30T06:58:54;102657.56;;;-2.27;100.00
42431;BME280;71905;47.466;19.024;2024-01-30T07:01:27;102652.63;;;-2.22;100.00
42431;BME280;71905;47.466;19.024;2024-01-30T07:03:56;102662.25;;;-2.20;100.00
42431;BME280;71905;47.466;19.024;2024-01-30T07:06:25;102656.47;;;-2.16;100.00
42431;BME280;71905;47.466;19.024;2024-01-30T07:08:53;102661.88;;;-2.11;100.00
42431;BME280;71905;47.466;19.024;2024-01-30T07:11:21;102663.84;;;-2.07;100.00
42431;BME280;71905;47.466;19.024;2024-01-30T07:13:51;102655.16;;;-2.08;100.00
42431;BME280;71905;47.466;19.024;2024-01-30T07:16:21;102663.31;;;-2.01;100.00
42431;BME280;71905;47.466;19.024;2024-01-30T07:18:50;102668.81;;;-1.95;100.00
42431;BME280;71905;47.466;19.024;2024-01-30T07:21:18;102665.31;;;-1.96;100.00
42431;BME280;71905;47.466;19.024;2024-01-30T07:23:48;102668.25;;;-1.90;100.00
42431;BME280;71905;47.466;19.024;2024-01-30T07:26:16;102671.00;;;-1.87;100.00
42431;BME280;71905;47.466;19.024;2024-01-30T07:28:44;102672.16;;;-1.82;100.00
42431;BME280;71905;47.466;19.024;2024-01-30T07:31:12;102663.91;;;-1.74;100.00
42431;BME280;71905;47.466;19.024;2024-01-30T07:33:41;102658.25;;;-1.67;100.00
42431;BME280;71905;47.466;19.024;2024-01-30T07:36:09;102659.94;;;-1.68;100.00
42431;BME280;71905;47.466;19.024;2024-01-30T07:38:38;102664.59;;;-1.62;100.00
42431;BME280;71905;47.466;19.024;2024-01-30T07:41:07;102655.34;;;-1.57;100.00
42431;BME280;71905;47.466;19.024;2024-01-30T07:43:35;102654.53;;;-1.56;100.00
42431;BME280;71905;47.466;19.024;2024-01-30T07:46:03;102656.56;;;-1.51;100.00
42431;BME280;71905;47.466;19.024;2024-01-30T07:48:33;102655.91;;;-1.46;100.00
42431;BME280;71905;47.466;19.024;2024-01-30T07:51:03;102649.19;;;-1.43;100.00
42431;BME280;71905;47.466;19.024;2024-01-30T07:53:31;102645.16;;;-1.38;100.00
42431;BME280;71905;47.466;19.024;2024-01-30T07:55:59;102651.53;;;-1.31;100.00
42431;BME280;71905;47.466;19.024;2024-01-30T07:58:27;102644.72;;;-1.29;100.00
42431;BME280;71905;47.466;19.024;2024-01-30T08:00:55;102645.13;;;-1.22;100.00
42431;BME280;71905;47.466;19.024;2024-01-30T08:03:25;102646.50;;;-1.12;100.00
42431;BME280;71905;47.466;19.024;2024-01-30T08:05:53;102655.47;;;-1.05;100.00
42431;BME280;71905;47.466;19.024;2024-01-30T08:08:23;102656.25;;;-0.90;100.00
42431;BME280;71905;47.466;19.024;2024-01-30T08:10:52;102654.13;;;-0.81;100.00
42431;BME280;71905;47.466;19.024;2024-01-30T08:13:20;102653.72;;;-0.72;100.00
42431;BME280;71905;47.466;19.024;2024-01-30T08:15:48;102659.66;;;-0.57;100.00
42431;BME280;71905;47.466;19.024;2024-01-30T08:18:16;102648.25;;;-0.43;100.00
42431;BME280;71905;47.466;19.024;2024-01-30T08:20:44;102649.81;;;-0.28;100.00
42431;BME280;71905;47.466;19.024;2024-01-30T08:23:12;102658.06;;;-0.19;100.00
42431;BME280;71905;47.466;19.024;2024-01-30T08:25:41;102653.44;;;-0.07;100.00
42431;BME280;71905;47.466;19.024;2024-01-30T08:28:09;102661.97;;;0.08;100.00
42431;BME280;71905;47.466;19.024;2024-01-30T08:30:37;102661.13;;;0.27;100.00
42431;BME280;71905;47.466;19.024;2024-01-30T08:33:06;102660.03;;;0.41;100.00
42431;BME280;71905;47.466;19.024;2024-01-30T08:35:34;102673.22;;;0.64;100.00
42431;BME280;71905;47.466;19.024;2024-01-30T08:38:03;102669.50;;;0.78;100.00
42431;BME280;71905;47.466;19.024;2024-01-30T08:40:31;102667.28;;;0.87;100.00
42431;BME280;71905;47.466;19.024;2024-01-30T08:43:00;102676.28;;;0.94;100.00
42431;BME280;71905;47.466;19.024;2024-01-30T08:45:29;102679.41;;;1.06;100.00
42431;BME280;71905;47.466;19.024;2024-01-30T08:47:57;102668.34;;;1.11;100.00
42431;BME280;71905;47.466;19.024;2024-01-30T08:50:25;102670.28;;;1.15;100.00
42431;BME280;71905;47.466;19.024;2024-01-30T08:52:53;102663.63;;;1.22;100.00
42431;BME280;71905;47.466;19.024;2024-01-30T08:55:21;102662.13;;;1.27;100.00
42431;BME280;71905;47.466;19.024;2024-01-30T08:57:49;102664.06;;;1.33;100.00
42431;BME280;71905;47.466;19.024;2024-01-30T09:00:20;102665.97;;;1.37;100.00
42431;BME280;71905;47.466;19.024;2024-01-30T09:02:48;102656.78;;;1.45;100.00
42431;BME280;71905;47.466;19.024;2024-01-30T09:05:16;102662.88;;;1.45;100.00
42431;BME280;71905;47.466;19.024;2024-01-30T09:07:44;102643.38;;;1.57;100.00
42431;BME280;71905;47.466;19.024;2024-01-30T09:10:13;102648.13;;;1.67;100.00
42431;BME280;71905;47.466;19.024;2024-01-30T09:12:44;102655.47;;;1.77;100.00
42431;BME280;71905;47.466;19.024;2024-01-30T09:15:12;102651.91;;;1.75;100.00
42431;BME280;71905;47.466;19.024;2024-01-30T09:17:41;102654.56;;;1.76;100.00
42431;BME280;71905;47.466;19.024;2024-01-30T09:20:10;102650.19;;;1.75;100.00
42431;BME280;71905;47.466;19.024;2024-01-30T09:22:38;102655.47;;;1.77;100.00
42431;BME280;71905;47.466;19.024;2024-01-30T09:25:06;102651.41;;;1.84;100.00
42431;BME280;71905;47.466;19.024;2024-01-30T09:27:35;102650.47;;;1.82;100.00
42431;BME280;71905;47.466;19.024;2024-01-30T09:30:03;102653.75;;;1.77;100.00
42431;BME280;71905;47.466;19.024;2024-01-30T09:32:31;102650.41;;;1.80;100.00
42431;BME280;71905;47.466;19.024;2024-01-30T09:35:00;102651.34;;;1.82;100.00
42431;BME280;71905;47.466;19.024;2024-01-30T09:37:29;102652.25;;;1.83;100.00
42431;BME280;71905;47.466;19.024;2024-01-30T09:39:57;102653.13;;;1.83;100.00
42431;BME280;71905;47.466;19.024;2024-01-30T09:42:28;102652.41;;;1.87;100.00
42431;BME280;71905;47.466;19.024;2024-01-30T09:45:01;102651.00;;;1.95;100.00
42431;BME280;71905;47.466;19.024;2024-01-30T09:47:31;102653.97;;;2.04;100.00
42431;BME280;71905;47.466;19.024;2024-01-30T09:50:01;102651.97;;;2.20;100.00
42431;BME280;71905;47.466;19.024;2024-01-30T09:52:32;102646.91;;;2.24;100.00
42431;BME280;71905;47.466;19.024;2024-01-30T09:55:01;102643.88;;;2.36;100.00
42431;BME280;71905;47.466;19.024;2024-01-30T09:57:29;102644.56;;;2.30;100.00
42431;BME280;71905;47.466;19.024;2024-01-30T09:59:57;102649.44;;;2.45;100.00
42431;BME280;71905;47.466;19.024;2024-01-30T10:02:25;102644.94;;;2.41;100.00
42431;BME280;71905;47.466;19.024;2024-01-30T10:04:53;102651.88;;;2.41;100.00
42431;BME280;71905;47.466;19.024;2024-01-30T10:07:22;102649.44;;;2.45;100.00
42431;BME280;71905;47.466;19.024;2024-01-30T10:09:51;102648.00;;;2.53;100.00
42431;BME280;71905;47.466;19.024;2024-01-30T10:12:20;102641.69;;;2.71;100.00
42431;BME280;71905;47.466;19.024;2024-01-30T10:14:49;102647.47;;;2.86;100.00
42431;BME280;71905;47.466;19.024;2024-01-30T10:17:17;102646.38;;;3.05;100.00
42431;BME280;71905;47.466;19.024;2024-01-30T10:19:58;102641.72;;;2.96;100.00
42431;BME280;71905;47.466;19.024;2024-01-30T10:22:29;102639.63;;;2.86;100.00
42431;BME280;71905;47.466;19.024;2024-01-30T10:24:58;102632.69;;;2.86;100.00
42431;BME280;71905;47.466;19.024;2024-01-30T10:27:32;102629.88;;;2.80;100.00
42431;BME280;71905;47.466;19.024;2024-01-30T10:30:00;102632.75;;;2.88;100.00
42431;BME280;71905;47.466;19.024;2024-01-30T10:32:30;102633.56;;;2.87;100.00
42431;BME280;71905;47.466;19.024;2024-01-30T10:35:01;102628.78;;;2.99;100.00
42431;BME280;71905;47.466;19.024;2024-01-30T10:37:31;102629.06;;;3.07;100.00
42431;BME280;71905;47.466;19.024;2024-01-30T10:40:03;102617.78;;;3.08;100.00
42431;BME280;71905;47.466;19.024;2024-01-30T10:42:33;102604.34;;;3.22;100.00
42431;BME280;71905;47.466;19.024;2024-01-30T10:45:06;102609.88;;;3.32;100.00
42431;BME280;71905;47.466;19.024;2024-01-30T10:47:36;102604.22;;;3.45;100.00
42431;BME280;71905;47.466;19.024;2024-01-30T10:50:05;102596.66;;;3.54;100.00
42431;BME280;71905;47.466;19.024;2024-01-30T10:52:37;102586.50;;;3.63;100.00
42431;BME280;71905;47.466;19.024;2024-01-30T10:55:07;102587.63;;;3.70;100.00
42431;BME280;71905;47.466;19.024;2024-01-30T10:57:35;102573.75;;;3.72;100.00
42431;BME280;71905;47.466;19.024;2024-01-30T11:00:06;102575.53;;;3.73;100.00
42431;BME280;71905;47.466;19.024;2024-01-30T11:02:38;102567.69;;;3.73;100.00
42431;BME280;71905;47.466;19.024;2024-01-30T11:05:08;102570.13;;;3.96;100.00
42431;BME280;71905;47.466;19.024;2024-01-30T11:07:39;102572.25;;;4.09;100.00
42431;BME280;71905;47.466;19.024;2024-01-30T11:10:08;102569.50;;;4.06;100.00
42431;BME280;71905;47.466;19.024;2024-01-30T11:12:40;102571.03;;;3.98;100.00
42431;BME280;71905;47.466;19.024;2024-01-30T11:15:12;102564.22;;;4.03;100.00
42431;BME280;71905;47.466;19.024;2024-01-30T11:17:41;102554.16;;;4.17;100.00
42431;BME280;71905;47.466;19.024;2024-01-30T11:20:10;102556.28;;;4.30;100.00
42431;BME280;71905;47.466;19.024;2024-01-30T11:22:42;102547.69;;;4.34;100.00
42431;BME280;71905;47.466;19.024;2024-01-30T11:25:13;102547.66;;;4.32;100.00
42431;BME280;71905;47.466;19.024;2024-01-30T11:27:41;102542.34;;;4.31;100.00
42431;BME280;71905;47.466;19.024;2024-01-30T11:30:11;102547.41;;;4.25;100.00
42431;BME280;71905;47.466;19.024;2024-01-30T11:32:58;102538.09;;;4.34;100.00
42431;BME280;71905;47.466;19.024;2024-01-30T11:35:30;102540.59;;;4.31;100.00
42431;BME280;71905;47.466;19.024;2024-01-30T11:38:00;102544.03;;;4.29;100.00
42431;BME280;71905;47.466;19.024;2024-01-30T11:40:30;102540.88;;;4.40;100.00
42431;BME280;71905;47.466;19.024;2024-01-30T11:42:59;102541.13;;;4.50;100.00
42431;BME280;71905;47.466;19.024;2024-01-30T11:45:28;102534.84;;;4.43;100.00
42431;BME280;71905;47.466;19.024;2024-01-30T11:47:57;102529.09;;;4.56;100.00
42431;BME280;71905;47.466;19.024;2024-01-30T11:50:27;102526.78;;;4.68;100.00
42431;BME280;71905;47.466;19.024;2024-01-30T11:52:55;102517.97;;;4.98;100.00
42431;BME280;71905;47.466;19.024;2024-01-30T11:55:25;102522.41;;;5.00;100.00
42431;BME280;71905;47.466;19.024;2024-01-30T11:57:59;102508.09;;;5.22;100.00
42431;BME280;71905;47.466;19.024;2024-01-30T12:00:28;102509.38;;;5.40;100.00
42431;BME280;71905;47.466;19.024;2024-01-30T12:02:57;102500.41;;;5.69;100.00
42431;BME280;71905;47.466;19.024;2024-01-30T12:05:28;102487.50;;;5.77;100.00
42431;BME280;71905;47.466;19.024;2024-01-30T12:07:56;102487.75;;;5.89;100.00
42431;BME280;71905;47.466;19.024;2024-01-30T12:10:28;102484.66;;;6.08;100.00
42431;BME280;71905;47.466;19.024;2024-01-30T12:12:57;102485.91;;;6.26;100.00
42431;BME280;71905;47.466;19.024;2024-01-30T12:15:25;102479.50;;;6.58;100.00
42431;BME280;71905;47.466;19.024;2024-01-30T12:18:03;102463.31;;;6.85;100.00
42431;BME280;71905;47.466;19.024;2024-01-30T12:20:32;102467.75;;;6.86;100.00
42431;BME280;71905;47.466;19.024;2024-01-30T12:23:00;102466.22;;;7.00;100.00
42431;BME280;71905;47.466;19.024;2024-01-30T12:25:29;102467.19;;;7.08;100.00
42431;BME280;71905;47.466;19.024;2024-01-30T12:27:58;102463.84;;;7.17;100.00
42431;BME280;71905;47.466;19.024;2024-01-30T12:30:27;102467.53;;;7.28;100.00
42431;BME280;71905;47.466;19.024;2024-01-30T12:32:55;102466.84;;;7.43;100.00
42431;BME280;71905;47.466;19.024;2024-01-30T12:35:24;102464.41;;;7.55;100.00
42431;BME280;71905;47.466;19.024;2024-01-30T12:37:56;102461.19;;;7.76;100.00
42431;BME280;71905;47.466;19.024;2024-01-30T12:40:25;102454.00;;;7.64;100.00